createdAt,value
2022-09-12T00:00:06.238Z,101431.50
2022-09-12T00:02:34.293Z,101429.38
2022-09-12T00:05:02.271Z,101441.03
2022-09-12T00:07:30.214Z,101438.56
2022-09-12T00:09:58.401Z,101437.63
2022-09-12T00:12:27.754Z,101428.56
2022-09-12T00:14:55.731Z,101430.50
2022-09-12T00:17:23.629Z,101430.88
2022-09-12T00:19:51.634Z,101431.78
2022-09-12T00:22:19.594Z,101432.75
2022-09-12T00:24:47.562Z,101430.97
2022-09-12T00:27:15.541Z,101424.88
2022-09-12T00:29:44.905Z,101422.91
2022-09-12T00:32:12.868Z,101415.00
2022-09-12T00:34:40.826Z,101424.00
2022-09-12T00:37:08.801Z,101425.91
2022-09-12T00:39:36.801Z,101413.41
2022-09-12T00:42:04.961Z,101410.78
2022-09-12T00:44:53.014Z,101408.91
2022-09-12T00:47:25.104Z,101412.78
2022-09-12T00:49:59.146Z,101418.09
2022-09-12T00:52:34.589Z,101415.66
2022-09-12T00:55:06.783Z,101415.75
2022-09-12T00:57:38.888Z,101412.03
2022-09-12T01:00:15.016Z,101412.81
2022-09-12T01:02:43.910Z,101409.16
2022-09-12T01:05:13.826Z,101401.22
2022-09-12T01:07:42.691Z,101400.50
2022-09-12T01:10:11.479Z,101408.53
2022-09-12T01:12:42.114Z,101405.13
2022-09-12T01:15:12.192Z,101399.09
2022-09-12T01:17:52.924Z,101401.69
2022-09-12T01:20:47.248Z,101397.13
2022-09-12T01:23:54.388Z,101400.69
2022-09-12T01:26:59.801Z,101399.81
2022-09-12T01:29:45.911Z,101404.38
2022-09-12T01:32:22.934Z,101385.06
2022-09-12T01:34:55.421Z,101397.22
2022-09-12T01:37:34.163Z,101393.66
2022-09-12T01:40:15.889Z,101391.91
2022-09-12T01:42:53.801Z,101395.44
2022-09-12T01:45:29.060Z,101389.22
2022-09-12T01:48:05.431Z,101381.28
2022-09-12T01:50:36.720Z,101378.69
2022-09-12T01:53:10.441Z,101372.66
2022-09-12T01:55:44.326Z,101375.63
2022-09-12T01:58:18.859Z,101373.78
2022-09-12T02:00:52.029Z,101380.84
2022-09-12T02:03:26.365Z,101361.44
2022-09-12T02:05:58.550Z,101370.31
2022-09-12T02:08:30.074Z,101374.78
2022-09-12T02:11:04.572Z,101374.53
2022-09-12T02:13:39.208Z,101374.69
2022-09-12T02:16:11.362Z,101367.56
2022-09-12T02:18:45.997Z,101368.59
2022-09-12T02:21:15.137Z,101360.75
2022-09-12T02:23:50.146Z,101358.22
2022-09-12T02:26:22.549Z,101363.63
2022-09-12T02:28:50.798Z,101359.25
2022-09-12T02:31:25.283Z,101354.28
2022-09-12T02:34:09.664Z,101351.75
2022-09-12T02:36:43.424Z,101355.38
2022-09-12T02:39:11.500Z,101358.88
2022-09-12T02:41:39.488Z,101359.91
2022-09-12T02:44:07.626Z,101350.09
2022-09-12T02:46:41.961Z,101344.66
2022-09-12T02:49:11.730Z,101353.41
2022-09-12T02:51:39.856Z,101349.78
2022-09-12T02:54:09.232Z,101346.06
2022-09-12T02:56:41.508Z,101348.78
2022-09-12T02:59:12.508Z,101344.38
2022-09-12T03:01:57.821Z,101342.59
2022-09-12T03:04:46.177Z,101348.53
2022-09-12T03:07:21.214Z,101346.88
2022-09-12T03:10:00.522Z,101352.25
2022-09-12T03:12:44.058Z,101345.97
2022-09-12T03:15:23.562Z,101345.03
2022-09-12T03:18:07.297Z,101339.88
2022-09-12T03:20:46.078Z,101349.00
2022-09-12T03:23:24.237Z,101344.63
2022-09-12T03:25:57.144Z,101348.97
2022-09-12T03:28:25.224Z,101347.25
2022-09-12T03:30:54.688Z,101345.53
2022-09-12T03:33:26.340Z,101349.16
2022-09-12T03:35:56.545Z,101350.94
2022-09-12T03:38:24.575Z,101352.72
2022-09-12T03:40:54.852Z,101355.31
2022-09-12T03:43:23.274Z,101357.91
2022-09-12T03:45:52.381Z,101354.34
2022-09-12T03:48:20.465Z,101359.63
2022-09-12T03:50:48.411Z,101353.53
2022-09-12T03:53:18.109Z,101352.06
2022-09-12T03:55:46.336Z,101349.50
2022-09-12T03:58:15.244Z,101352.16
2022-09-12T04:00:44.284Z,101348.59
2022-09-12T04:03:12.227Z,101352.25
2022-09-12T04:05:40.201Z,101346.03
2022-09-12T04:08:08.173Z,101353.19
2022-09-12T04:10:37.489Z,101355.09
2022-09-12T04:13:05.517Z,101345.47
2022-09-12T04:15:33.449Z,101349.81
2022-09-12T04:18:05.614Z,101348.06
2022-09-12T04:20:34.131Z,101347.94
2022-09-12T04:23:02.059Z,101350.50
2022-09-12T04:25:31.302Z,101344.16
2022-09-12T04:28:00.657Z,101335.25
2022-09-12T04:30:28.660Z,101344.25
2022-09-12T04:32:56.607Z,101350.50
2022-09-12T04:35:24.584Z,101345.31
2022-09-12T04:37:52.586Z,101345.38
2022-09-12T04:40:20.876Z,101343.53
2022-09-12T04:42:48.841Z,101345.28
2022-09-12T04:45:18.149Z,101333.75
2022-09-12T04:47:46.734Z,101342.66
2022-09-12T04:50:14.908Z,101340.94
2022-09-12T04:52:43.348Z,101341.84
2022-09-12T04:55:11.373Z,101349.91
2022-09-12T04:57:39.382Z,101343.75
2022-09-12T05:00:08.777Z,101341.91
2022-09-12T05:02:38.243Z,101346.28
2022-09-12T05:05:07.350Z,101348.94
2022-09-12T05:07:35.417Z,101348.94
2022-09-12T05:10:04.595Z,101347.94
2022-09-12T05:12:32.848Z,101348.63
2022-09-12T05:15:00.769Z,101348.69
2022-09-12T05:17:30.236Z,101350.47
2022-09-12T05:19:59.568Z,101346.88
2022-09-12T05:22:27.501Z,101345.81
2022-09-12T05:24:55.466Z,101344.78
2022-09-12T05:27:23.417Z,101337.72
2022-09-12T05:29:51.346Z,101336.84
2022-09-12T05:32:19.308Z,101339.44
2022-09-12T05:34:47.544Z,101339.41
2022-09-12T05:37:17.500Z,101341.03
2022-09-12T05:39:46.002Z,101340.94
2022-09-12T05:42:14.281Z,101332.00
2022-09-12T05:44:42.263Z,101347.94
2022-09-12T05:47:12.947Z,101349.66
2022-09-12T05:49:41.610Z,101345.91
2022-09-12T05:52:09.702Z,101348.34
2022-09-12T05:54:38.976Z,101349.91
2022-09-12T05:57:07.057Z,101342.63
2022-09-12T05:59:35.263Z,101346.06
2022-09-12T06:02:03.226Z,101350.38
2022-09-12T06:04:31.214Z,101355.47
2022-09-12T06:06:59.228Z,101342.78
2022-09-12T06:09:28.084Z,101354.25
2022-09-12T06:11:57.398Z,101349.56
2022-09-12T06:14:25.393Z,101343.22
2022-09-12T06:16:53.476Z,101357.31
2022-09-12T06:19:23.609Z,101337.75
2022-09-12T06:21:52.676Z,101350.81
2022-09-12T06:24:21.676Z,101351.38
2022-09-12T06:26:50.267Z,101361.03
2022-09-12T06:29:20.611Z,101362.56
2022-09-12T06:31:48.579Z,101358.88
2022-09-12T06:34:17.690Z,101354.31
2022-09-12T06:36:47.528Z,101353.09
2022-09-12T06:39:17.169Z,101362.72
2022-09-12T06:41:45.985Z,101353.63
2022-09-12T06:44:16.107Z,101351.56
2022-09-12T06:46:45.857Z,101357.56
2022-09-12T06:49:14.141Z,101351.09
2022-09-12T06:51:43.238Z,101350.94
2022-09-12T06:54:13.907Z,101343.53
2022-09-12T06:56:42.056Z,101337.13
2022-09-12T06:59:10.072Z,101341.34
2022-09-12T07:01:38.315Z,101342.00
2022-09-12T07:04:07.692Z,101333.75
2022-09-12T07:06:38.423Z,101341.56
2022-09-12T07:09:07.699Z,101338.63
2022-09-12T07:11:38.011Z,101338.34
2022-09-12T07:14:07.839Z,101341.72
2022-09-12T07:16:37.219Z,101338.72
2022-09-12T07:19:08.909Z,101331.03
2022-09-12T07:21:40.060Z,101334.19
2022-09-12T07:24:09.806Z,101333.75
2022-09-12T07:26:38.542Z,101327.03
2022-09-12T07:29:35.522Z,101322.75
2022-09-12T07:31:54.864Z,101329.59
2022-09-12T07:34:24.183Z,101330.75
2022-09-12T07:36:52.164Z,101329.38
2022-09-12T07:39:20.193Z,101325.50
2022-09-12T07:41:48.208Z,101321.38
2022-09-12T07:44:16.170Z,101326.38
2022-09-12T07:46:44.303Z,101322.38
2022-09-12T07:49:13.549Z,101314.09
2022-09-12T07:51:43.351Z,101320.47
2022-09-12T07:54:11.392Z,101320.19
2022-09-12T07:56:40.477Z,101315.38
2022-09-12T07:59:08.918Z,101322.94
2022-09-12T08:01:37.011Z,101317.28
2022-09-12T08:04:05.868Z,101316.16
2022-09-12T08:06:40.277Z,101249.56
2022-09-12T08:09:12.082Z,101320.84
2022-09-12T08:11:40.114Z,101324.88
2022-09-12T08:14:08.074Z,101325.00
2022-09-12T08:16:36.328Z,101331.09
2022-09-12T08:19:04.768Z,101333.72
2022-09-12T08:21:34.190Z,101335.06
2022-09-12T08:24:04.657Z,101339.22
2022-09-12T08:26:35.201Z,101338.63
2022-09-12T08:29:04.164Z,101332.81
2022-09-12T08:31:36.317Z,101335.97
2022-09-12T08:34:05.467Z,101329.25
2022-09-12T08:36:33.694Z,101317.53
2022-09-12T08:39:04.585Z,101317.72
2022-09-12T08:41:37.061Z,101315.31
2022-09-12T08:44:40.815Z,101320.66
2022-09-12T08:47:28.529Z,101314.81
2022-09-12T08:50:15.240Z,101309.91
2022-09-12T08:52:50.804Z,101312.38
2022-09-12T08:55:31.107Z,101311.97
2022-09-12T08:58:01.545Z,101309.91
2022-09-12T09:00:40.533Z,101306.09
2022-09-12T09:03:30.559Z,101300.97
2022-09-12T09:06:07.319Z,101303.53
2022-09-12T09:08:45.137Z,101300.69
2022-09-12T09:11:25.648Z,101295.97
2022-09-12T09:14:37.409Z,101292.03
2022-09-12T09:17:10.429Z,101292.88
2022-09-12T09:19:48.832Z,101295.16
2022-09-12T09:22:36.570Z,101289.00
2022-09-12T09:25:11.201Z,101291.34
2022-09-12T09:27:44.954Z,101294.25
2022-09-12T09:30:17.643Z,101275.16
2022-09-12T09:32:51.052Z,101280.72
2022-09-12T09:35:25.773Z,101284.28
2022-09-12T09:38:02.755Z,101284.91
2022-09-12T09:40:47.100Z,101291.75
2022-09-12T09:43:22.868Z,101274.28
2022-09-12T09:45:53.865Z,101277.47
2022-09-12T09:48:25.811Z,101280.38
2022-09-12T09:50:54.028Z,101272.97
2022-09-12T09:53:37.471Z,101275.22
2022-09-12T09:56:11.382Z,101272.53
2022-09-12T09:58:40.750Z,101275.16
2022-09-12T10:01:17.322Z,101272.31
2022-09-12T10:03:53.014Z,101264.59
2022-09-12T10:06:32.363Z,101268.34
2022-09-12T10:09:22.040Z,101272.25
2022-09-12T10:11:51.536Z,101263.81
2022-09-12T10:14:36.018Z,101272.34
2022-09-12T10:17:24.670Z,101257.75
2022-09-12T10:20:10.692Z,101260.91
2022-09-12T10:22:41.449Z,101267.59
2022-09-12T10:25:13.260Z,101266.88
2022-09-12T10:27:43.016Z,101261.47
2022-09-12T10:30:18.631Z,101262.16
2022-09-12T10:32:50.841Z,101262.06
2022-09-12T10:35:21.989Z,101265.59
2022-09-12T10:37:56.664Z,101257.75
2022-09-12T10:40:27.450Z,101260.16
2022-09-12T10:42:57.086Z,101255.44
2022-09-12T10:45:29.035Z,101251.19
2022-09-12T10:48:04.140Z,101258.44
2022-09-12T10:50:40.309Z,101245.56
2022-09-12T10:53:20.274Z,101254.00
2022-09-12T10:56:07.828Z,101252.75
2022-09-12T10:58:51.997Z,101246.31
2022-09-12T11:01:35.408Z,101249.50
2022-09-12T11:04:25.218Z,101239.53
2022-09-12T11:07:06.036Z,101241.66
2022-09-12T11:09:39.370Z,101233.56
2022-09-12T11:12:16.370Z,101234.63
2022-09-12T11:14:56.502Z,101231.81
2022-09-12T11:17:41.507Z,101231.34
2022-09-12T11:20:23.942Z,101224.38
2022-09-12T11:23:26.481Z,101232.56
2022-09-12T11:26:01.242Z,101223.72
2022-09-12T11:28:47.380Z,101223.50
2022-09-12T11:31:33.965Z,101228.81
2022-09-12T11:34:09.475Z,101224.94
2022-09-12T11:36:52.429Z,101225.91
2022-09-12T11:39:24.857Z,101220.72
2022-09-12T11:41:58.267Z,101215.41
2022-09-12T11:44:30.753Z,101213.44
2022-09-12T11:46:59.450Z,101212.94
2022-09-12T11:49:35.620Z,101209.66
2022-09-12T11:52:12.335Z,101203.25
2022-09-12T11:54:49.044Z,101203.91
2022-09-12T11:57:28.209Z,101202.38
2022-09-12T12:00:03.249Z,101203.59
2022-09-12T12:02:36.769Z,101203.09
2022-09-12T12:05:20.410Z,101204.91
2022-09-12T12:07:54.950Z,101204.91
2022-09-12T12:10:26.234Z,101198.16
2022-09-12T12:12:56.134Z,101187.16
2022-09-12T12:15:26.896Z,101184.16
2022-09-12T12:18:03.633Z,101186.41
2022-09-12T12:20:32.271Z,101189.31
2022-09-12T12:23:01.994Z,101183.72
2022-09-12T12:25:52.983Z,101190.47
2022-09-12T12:29:00.525Z,101189.69
2022-09-12T12:31:28.527Z,101184.00
2022-09-12T12:34:23.886Z,101185.13
2022-09-12T12:36:51.979Z,101174.22
2022-09-12T12:40:00.900Z,101178.25
2022-09-12T12:43:04.866Z,101175.00
2022-09-12T12:46:04.964Z,101169.19
2022-09-12T12:48:37.873Z,101167.50
2022-09-12T12:51:30.594Z,101170.56
2022-09-12T12:53:59.024Z,101164.72
2022-09-12T12:56:36.338Z,101157.25
2022-09-12T12:59:16.663Z,101160.81
2022-09-12T13:01:54.711Z,101159.53
2022-09-12T13:04:25.989Z,101160.09
2022-09-12T13:07:04.582Z,101156.31
2022-09-12T13:09:40.081Z,101147.69
2022-09-12T13:12:11.576Z,101134.44
2022-09-12T13:14:53.889Z,101128.53
2022-09-12T13:17:33.529Z,101128.53
2022-09-12T13:20:34.571Z,101122.16
2022-09-12T13:23:02.617Z,101121.50
2022-09-12T13:25:33.373Z,101118.84
2022-09-12T13:28:07.445Z,101122.00
2022-09-12T13:30:39.746Z,101114.03
2022-09-12T13:33:17.860Z,101102.09
2022-09-12T13:36:11.640Z,101102.97
2022-09-12T13:38:51.004Z,101107.81
2022-09-12T13:41:35.290Z,101096.94
2022-09-12T13:44:05.180Z,101090.41
2022-09-12T13:46:35.553Z,101081.66
2022-09-12T13:49:13.512Z,101079.81
2022-09-12T13:51:41.763Z,101083.03
2022-09-12T13:54:22.513Z,101076.59
2022-09-12T13:56:52.427Z,101077.88
2022-09-12T13:59:20.400Z,101081.56
2022-09-12T14:01:50.828Z,101070.00
2022-09-12T14:04:38.685Z,101079.31
2022-09-12T14:07:14.360Z,101073.41
2022-09-12T14:09:45.104Z,101075.47
2022-09-12T14:12:25.196Z,101072.34
2022-09-12T14:14:54.417Z,101061.69
2022-09-12T14:17:31.671Z,101063.56
2022-09-12T14:20:02.043Z,101057.97
2022-09-12T14:22:30.952Z,101058.38
2022-09-12T14:25:00.407Z,101052.13
2022-09-12T14:27:32.868Z,101055.16
2022-09-12T14:30:03.796Z,101053.00
2022-09-12T14:32:33.180Z,101061.25
2022-09-12T14:35:18.062Z,101041.81
2022-09-12T14:37:49.387Z,101051.00
2022-09-12T14:40:19.761Z,101041.00
2022-09-12T14:42:50.546Z,101042.34
2022-09-12T14:45:25.049Z,101040.06
2022-09-12T14:47:54.937Z,101040.00
2022-09-12T14:50:26.202Z,101031.84
2022-09-12T14:53:05.297Z,101022.97
2022-09-12T14:55:35.557Z,101023.97
2022-09-12T14:58:16.904Z,101023.44
2022-09-12T15:01:03.778Z,101022.09
2022-09-12T15:03:35.647Z,101012.91
2022-09-12T15:06:05.677Z,101015.41
2022-09-12T15:08:33.920Z,101016.44
2022-09-12T15:11:01.957Z,101011.94
2022-09-12T15:13:32.061Z,101011.31
2022-09-12T15:16:00.722Z,101009.75
2022-09-12T15:18:30.059Z,101005.03
2022-09-12T15:21:03.671Z,100995.09
2022-09-12T15:23:36.264Z,100995.56
2022-09-12T15:26:04.809Z,100989.44
2022-09-12T15:28:33.065Z,100997.81
2022-09-12T15:31:12.819Z,100982.25
2022-09-12T15:33:40.844Z,100987.16
2022-09-12T15:36:16.971Z,100986.41
2022-09-12T15:38:45.521Z,100977.34
2022-09-12T15:41:17.117Z,100976.53
2022-09-12T15:43:45.514Z,100983.81
2022-09-12T15:46:15.219Z,100979.66
2022-09-12T15:48:43.388Z,100979.19
2022-09-12T15:51:15.694Z,100975.56
2022-09-12T15:53:44.490Z,100973.44
2022-09-12T15:56:12.813Z,100974.19
2022-09-12T15:58:55.002Z,100969.00
2022-09-12T16:01:27.061Z,100968.44
2022-09-12T16:03:55.225Z,100962.88
2022-09-12T16:06:25.038Z,100961.34
2022-09-12T16:08:53.037Z,100961.34
2022-09-12T16:11:23.183Z,100955.53
2022-09-12T16:13:54.000Z,100957.53
2022-09-12T16:16:22.167Z,100947.59
2022-09-12T16:18:50.202Z,100949.78
2022-09-12T16:21:18.397Z,100948.53
2022-09-12T16:23:48.657Z,100947.94
2022-09-12T16:26:17.461Z,100935.91
2022-09-12T16:28:46.115Z,100946.97
2022-09-12T16:31:15.231Z,100945.59
2022-09-12T16:33:43.364Z,100932.47
2022-09-12T16:36:13.400Z,100930.97
2022-09-12T16:38:42.388Z,100918.78
2022-09-12T16:41:12.545Z,100925.91
2022-09-12T16:43:41.159Z,100933.91
2022-09-12T16:46:10.883Z,100929.44
2022-09-12T16:48:42.758Z,100923.22
2022-09-12T16:51:10.888Z,100932.91
2022-09-12T16:53:40.201Z,100932.06
2022-09-12T16:56:08.784Z,100933.59
2022-09-12T16:58:42.029Z,100921.59
2022-09-12T17:01:12.367Z,100922.41
2022-09-12T17:03:40.510Z,100918.84
2022-09-12T17:06:10.287Z,100912.47
2022-09-12T17:08:40.323Z,100901.66
2022-09-12T17:11:10.740Z,100900.69
2022-09-12T17:14:03.115Z,100901.34
2022-09-12T17:16:29.957Z,100902.63
2022-09-12T17:18:57.935Z,100883.88
2022-09-12T17:21:26.190Z,100897.00
2022-09-12T17:23:54.272Z,100897.31
2022-09-12T17:26:22.480Z,100887.88
2022-09-12T17:28:51.853Z,100886.69
2022-09-12T17:31:20.097Z,100883.19
2022-09-12T17:33:48.321Z,100883.31
2022-09-12T17:36:18.592Z,100870.97
2022-09-12T17:38:47.401Z,100881.69
2022-09-12T17:41:17.808Z,100871.81
2022-09-12T17:43:46.778Z,100875.75
2022-09-12T17:46:16.122Z,100870.00
2022-09-12T17:48:44.115Z,100867.06
2022-09-12T17:51:14.413Z,100869.00
2022-09-12T17:53:43.006Z,100868.63
2022-09-12T17:56:11.954Z,100872.44
2022-09-12T17:58:40.046Z,100863.75
2022-09-12T18:01:28.299Z,100858.75
2022-09-12T18:04:00.471Z,100858.28
2022-09-12T18:06:28.627Z,100863.06
2022-09-12T18:08:56.598Z,100858.03
2022-09-12T18:11:24.583Z,100853.03
2022-09-12T18:13:52.529Z,100857.00
2022-09-12T18:16:20.533Z,100861.66
2022-09-12T18:18:50.921Z,100859.16
2022-09-12T18:21:20.442Z,100853.66
2022-09-12T18:23:48.628Z,100855.56
2022-09-12T18:26:16.613Z,100864.47
2022-09-12T18:28:45.627Z,100848.44
2022-09-12T18:31:16.071Z,100846.69
2022-09-12T18:33:44.193Z,100836.84
2022-09-12T18:36:14.133Z,100836.94
2022-09-12T18:38:45.300Z,100824.69
2022-09-12T18:41:15.221Z,100826.94
2022-09-12T18:43:43.573Z,100834.97
2022-09-12T18:46:13.736Z,100832.16
2022-09-12T18:48:41.831Z,100830.88
2022-09-12T18:51:12.956Z,100825.75
2022-09-12T18:53:41.408Z,100815.25
2022-09-12T18:56:12.438Z,100818.25
2022-09-12T18:58:42.572Z,100819.22
2022-09-12T19:01:12.139Z,100793.84
2022-09-12T19:03:40.560Z,100817.00
2022-09-12T19:06:11.718Z,100821.66
2022-09-12T19:08:40.331Z,100814.59
2022-09-12T19:11:10.632Z,100807.84
2022-09-12T19:13:40.972Z,100817.50
2022-09-12T19:16:10.512Z,100804.38
2022-09-12T19:18:40.036Z,100805.63
2022-09-12T19:21:09.449Z,100803.22
2022-09-12T19:23:37.622Z,100797.16
2022-09-12T19:26:07.948Z,100792.81
2022-09-12T19:28:37.502Z,100789.25
2022-09-12T19:31:06.441Z,100783.16
2022-09-12T19:33:35.517Z,100782.41
2022-09-12T19:36:04.980Z,100787.03
2022-09-12T19:38:33.188Z,100781.81
2022-09-12T19:41:03.524Z,100787.13
2022-09-12T19:43:32.181Z,100771.97
2022-09-12T19:46:02.305Z,100759.66
2022-09-12T19:48:30.866Z,100756.75
2022-09-12T19:51:00.740Z,100760.41
2022-09-12T19:53:29.173Z,100768.00
2022-09-12T19:56:01.407Z,100771.28
2022-09-12T19:58:29.684Z,100767.69
2022-09-12T20:01:07.738Z,100774.91
2022-09-12T20:03:37.236Z,100761.59
2022-09-12T20:06:06.640Z,100762.09
2022-09-12T20:08:35.163Z,100764.19
2022-09-12T20:11:03.206Z,100759.84
2022-09-12T20:13:31.267Z,100761.69
2022-09-12T20:16:07.383Z,100758.88
2022-09-12T20:18:39.206Z,100753.69
2022-09-12T20:21:11.888Z,100746.53
2022-09-12T20:23:40.850Z,100752.22
2022-09-12T20:26:09.595Z,100755.03
2022-09-12T20:28:37.713Z,100749.72
2022-09-12T20:31:07.923Z,100743.72
2022-09-12T20:33:36.054Z,100740.25
2022-09-12T20:36:07.682Z,100738.81
2022-09-12T20:38:36.505Z,100736.84
2022-09-12T20:41:06.171Z,100713.22
2022-09-12T20:43:34.306Z,100728.91
2022-09-12T20:46:06.180Z,100726.41
2022-09-12T20:48:34.359Z,100716.84
2022-09-12T20:51:02.426Z,100718.88
2022-09-12T20:53:34.996Z,100706.53
2022-09-12T20:56:05.353Z,100705.75
2022-09-12T20:58:34.041Z,100707.50
2022-09-12T21:01:08.471Z,100705.75
2022-09-12T21:03:38.850Z,100692.88
2022-09-12T21:06:07.679Z,100693.56
2022-09-12T21:08:38.343Z,100688.19
2022-09-12T21:11:07.597Z,100685.53
2022-09-12T21:13:35.829Z,100687.38
2022-09-12T21:16:06.324Z,100678.63
2022-09-12T21:18:35.860Z,100666.78
2022-09-12T21:21:04.805Z,100652.72
2022-09-12T21:23:33.615Z,100650.69
2022-09-12T21:26:03.462Z,100642.59
2022-09-12T21:28:31.927Z,100638.34
2022-09-12T21:31:00.227Z,100616.50
2022-09-12T21:33:28.859Z,100632.09
2022-09-12T21:36:01.666Z,100640.00
2022-09-12T21:38:30.457Z,100635.50
2022-09-12T21:41:06.530Z,100615.41
2022-09-12T21:43:34.887Z,100639.91
2022-09-12T21:46:03.493Z,100639.16
2022-09-12T21:48:31.857Z,100650.50
2022-09-12T21:51:00.596Z,100646.00
2022-09-12T21:53:28.663Z,100634.31
2022-09-12T21:56:01.771Z,100648.00
2022-09-12T21:58:31.223Z,100640.09
2022-09-12T22:01:00.329Z,100639.25
2022-09-12T22:03:28.890Z,100633.94
2022-09-12T22:06:01.478Z,100643.75
2022-09-12T22:08:31.007Z,100635.66
2022-09-12T22:11:00.835Z,100626.91
2022-09-12T22:13:31.431Z,100618.81
2022-09-12T22:16:00.614Z,100618.81
2022-09-12T22:18:28.727Z,100619.84
2022-09-12T22:21:01.584Z,100616.22
2022-09-12T22:23:47.207Z,100599.25
2022-09-12T22:26:15.615Z,100608.88
2022-09-12T22:28:47.239Z,100597.16
2022-09-12T22:31:16.164Z,100588.31
2022-09-12T22:33:44.359Z,100583.66
2022-09-12T22:36:12.723Z,100583.00
2022-09-12T22:38:40.791Z,100581.25
2022-09-12T22:41:11.640Z,100582.03
2022-09-12T22:43:39.758Z,100578.84
2022-09-12T22:46:10.890Z,100569.78
2022-09-12T22:48:39.766Z,100577.78
2022-09-12T22:51:08.306Z,100567.00
2022-09-12T22:53:36.876Z,100561.59
2022-09-12T22:56:06.077Z,100557.19
2022-09-12T22:58:36.653Z,100544.78
2022-09-12T23:01:06.014Z,100539.47
2022-09-12T23:03:36.120Z,100550.81
2022-09-12T23:06:04.516Z,100540.94
2022-09-12T23:08:32.998Z,100541.97
2022-09-12T23:11:02.661Z,100534.75
2022-09-12T23:13:31.027Z,100541.13
2022-09-12T23:16:00.098Z,100541.13
2022-09-12T23:18:28.884Z,100536.50
2022-09-12T23:21:03.572Z,100541.78
2022-09-12T23:23:31.876Z,100535.63
2022-09-12T23:26:08.046Z,100534.94
2022-09-12T23:28:36.645Z,100530.69
2022-09-12T23:31:04.964Z,100526.44
2022-09-12T23:33:33.331Z,100532.03
2022-09-12T23:36:05.022Z,100533.28
2022-09-12T23:38:33.812Z,100528.94
2022-09-12T23:41:03.227Z,100523.47
2022-09-12T23:43:31.668Z,100527.28
2022-09-12T23:46:01.314Z,100490.38
2022-09-12T23:48:29.809Z,100519.47
2022-09-12T23:50:57.939Z,100519.47
2022-09-12T23:53:27.459Z,100518.88
2022-09-12T23:55:55.480Z,100515.34
2022-09-12T23:58:23.597Z,100488.28
